createdAt,value
2023-05-05T07:19:50.748Z,3610.00
2023-05-05T13:29:45.446Z,4784.00
2023-05-05T13:44:27.425Z,4833.00
2023-05-05T13:45:34.476Z,4932.00
2023-05-05T13:46:35.267Z,4969.00
2023-05-05T13:47:39.458Z,4724.00
2023-05-05T13:48:34.438Z,4323.00
2023-05-05T13:49:34.427Z,3990.00
2023-05-05T13:50:36.609Z,3747.00
2023-05-05T13:51:36.621Z,3500.00
2023-05-05T13:52:35.667Z,3284.00
2023-05-05T13:53:34.865Z,2986.00
2023-05-05T13:54:34.371Z,2715.00
2023-05-05T13:55:34.369Z,2606.00
2023-05-05T13:56:39.241Z,2563.00
2023-05-05T13:57:34.352Z,2601.00
2023-05-05T13:58:37.733Z,2653.00
2023-05-05T13:59:35.118Z,2745.00
2023-05-05T14:00:34.296Z,2871.00
2023-05-05T14:01:38.979Z,2915.00
2023-05-05T14:02:34.929Z,2883.00
2023-05-05T14:03:36.379Z,2831.00
2023-05-05T14:04:34.888Z,2800.00
2023-05-05T14:05:36.956Z,2759.00
2023-05-05T14:07:51.802Z,2863.00
2023-05-05T14:09:01.156Z,2809.00
2023-05-05T14:09:58.846Z,2848.00
2023-05-05T14:11:03.515Z,2906.00
2023-05-05T14:13:22.718Z,3024.00
2023-05-05T14:46:51.304Z,3111.00
2023-05-05T14:51:29.801Z,3225.00
2023-05-05T14:52:38.012Z,3233.00
2023-05-05T14:54:53.283Z,3352.00
2023-05-05T14:56:02.702Z,3279.00
2023-05-05T14:57:01.700Z,3343.00
2023-05-05T14:58:01.690Z,3425.00
2023-05-05T14:59:01.843Z,3527.00
2023-05-05T15:00:00.566Z,3643.00
2023-05-05T15:01:00.798Z,3688.00
2023-05-05T15:02:02.772Z,3694.00
2023-05-05T15:03:00.589Z,3682.00
2023-05-05T15:04:00.281Z,3715.00
2023-05-05T15:05:00.686Z,3656.00
2023-05-05T15:06:00.778Z,3676.00
2023-05-05T15:07:02.819Z,3823.00
2023-05-05T15:08:02.328Z,3891.00
2023-05-05T15:09:00.164Z,3756.00
2023-05-05T15:10:02.349Z,3723.00
2023-05-05T15:11:01.261Z,3711.00
2023-05-05T18:43:53.845Z,88.00
2023-05-05T18:44:56.413Z,91.00
2023-05-05T18:45:58.830Z,86.00
2023-05-05T18:46:56.134Z,82.00
2023-05-05T19:02:21.025Z,31.00
2023-05-05T19:03:26.267Z,34.00
2023-05-05T19:04:31.207Z,30.00
2023-05-05T19:05:30.427Z,24.00
